Time;durP1;ratioP1;P1;durP2;ratioP2;P2;SDS_P1;SDS_P2;PMS_P1;PMS_P2;Temp;Humidity;BMP_temperature;BMP_pressure;BME280_temperature;BME280_humidity;BME280_pressure;Samples;Min_cycle;Max_cycle;Signal;HPM_P1;HPM_P2
2021/09/07 00:02:23;;;;;;;;;;;;;;;22.51;43.52;101964.13;5007067;28;1980;-52
2021/09/07 00:05:01;;;;;;;;;;;;;;;22.51;43.63;101968.66;5007436;28;1750;-52
2021/09/07 00:07:31;;;;;;;;;;;;;;;22.52;43.84;101979.34;5003293;28;1558;-52
2021/09/07 00:09:58;;;;;;;;;;;;;;;22.53;44.08;101983.72;5007998;28;1614;-52
2021/09/07 00:12:28;;;;;;;;;;;;;;;22.51;43.60;101961.44;5006310;28;1668;-52
2021/09/07 00:17:36;;;;;;;;;;;;;;;22.53;43.85;101982.88;5011991;28;3284;-52
2021/09/07 00:20:06;;;;;;;;;;;;;;;22.51;43.70;101979.47;5008855;28;1804;-52
2021/09/07 00:25:16;;;;;;;;;;;;;;;22.37;42.88;101975.22;5015204;28;2465;-52
2021/09/07 00:27:44;;;;;;;;;;;;;;;22.31;43.04;101981.97;5007487;28;2057;-52
2021/09/07 00:30:18;;;;;;;;;;;;;;;22.37;43.87;101969.84;5006426;28;1564;-51
2021/09/07 00:32:48;;;;;;;;;;;;;;;22.44;43.78;101992.56;5003972;28;1835;-52
2021/09/07 00:35:19;;;;;;;;;;;;;;;22.42;43.78;101975.69;5006811;28;1580;-52
2021/09/07 00:37:45;;;;;;;;;;;;;;;22.40;43.66;101988.44;5005571;28;1602;-52
2021/09/07 00:40:16;;;;;;;;;;;;;;;;;;5010176;28;1709;-52
2021/09/07 00:42:44;;;;;;;;;;;;;;;22.39;43.16;101986.72;5005101;28;1906;-52
2021/09/07 00:45:14;;;;;;;;;;;;;;;22.42;43.77;101986.44;5002687;28;1880;-52
2021/09/07 00:47:42;;;;;;;;;;;;;;;22.39;43.17;101982.19;5004263;28;1613;-52
2021/09/07 00:50:10;;;;;;;;;;;;;;;22.38;43.37;101985.00;5006950;28;1597;-52
2021/09/07 00:52:40;;;;;;;;;;;;;;;22.33;43.38;101981.84;5008416;28;1573;-53
2021/09/07 00:55:08;;;;;;;;;;;;;;;22.34;43.13;101988.94;5003430;28;1783;-52
2021/09/07 00:57:35;;;;;;;;;;;;;;;22.32;43.23;101986.41;5006458;28;1587;-52
2021/09/07 01:00:07;;;;;;;;;;;;;;;22.31;43.71;101986.53;5003195;28;1498;-52
2021/09/07 01:02:35;;;;;;;;;;;;;;;22.23;43.86;101982.56;5004958;28;1914;-52
2021/09/07 01:05:04;;;;;;;;;;;;;;;22.26;44.04;101988.72;5009143;28;1457;-52
2021/09/07 01:07:32;;;;;;;;;;;;;;;22.34;44.63;101988.94;5007880;28;1692;-51
2021/09/07 01:10:03;;;;;;;;;;;;;;;22.29;43.50;101983.09;5012949;28;1719;-51
2021/09/07 01:12:44;;;;;;;;;;;;;;;22.29;44.14;102007.34;5008912;28;1798;-52
2021/09/07 01:15:12;;;;;;;;;;;;;;;22.33;44.04;101987.25;5002908;28;1699;-51
2021/09/07 01:17:39;;;;;;;;;;;;;;;22.34;44.35;101989.81;5009710;28;1532;-52
2021/09/07 01:20:07;;;;;;;;;;;;;;;22.27;43.46;101994.00;5013019;28;1528;-51
2021/09/07 01:22:36;;;;;;;;;;;;;;;22.23;43.96;101993.34;5009483;28;1906;-51
2021/09/07 01:25:09;;;;;;;;;;;;;;;22.24;43.76;101984.34;5014063;28;1995;-51
2021/09/07 01:27:35;;;;;;;;;;;;;;;22.22;44.09;101983.56;5012214;28;1623;-51
2021/09/07 01:30:14;;;;;;;;;;;;;;;22.23;43.69;101987.97;5007003;28;1626;-52
2021/09/07 01:32:41;;;;;;;;;;;;;;;22.32;44.17;101982.81;5012086;28;1620;-52
2021/09/07 01:35:08;;;;;;;;;;;;;;;22.29;43.72;101988.50;5010038;28;1640;-52
2021/09/07 01:37:37;;;;;;;;;;;;;;;22.30;44.24;101995.56;5012753;28;1693;-51
2021/09/07 01:40:11;;;;;;;;;;;;;;;22.25;43.86;101985.19;5013775;28;1592;-52
2021/09/07 01:42:41;;;;;;;;;;;;;;;22.21;43.67;101987.25;5012669;28;1918;-52
2021/09/07 01:45:08;;;;;;;;;;;;;;;22.13;43.24;101988.88;5007837;28;1510;-52
2021/09/07 01:47:35;;;;;;;;;;;;;;;22.17;43.84;101984.94;5006883;28;1595;-52
2021/09/07 01:50:04;;;;;;;;;;;;;;;22.13;43.41;101983.47;5007912;28;1666;-52
2021/09/07 01:52:31;;;;;;;;;;;;;;;22.15;44.13;101979.66;5011880;28;1550;-51
2021/09/07 01:54:59;;;;;;;;;;;;;;;22.18;43.45;101971.34;5009057;28;1401;-52
2021/09/07 01:57:38;;;;;;;;;;;;;;;22.20;43.50;101977.47;5004107;28;2028;-51
2021/09/07 02:02:46;;;;;;;;;;;;;;;22.07;43.68;101971.38;5042217;23;1979;-51
2021/09/07 02:05:15;;;;;;;;;;;;;;;22.07;43.88;101986.69;5026993;28;2073;-51
2021/09/07 02:07:42;;;;;;;;;;;;;;;22.12;43.62;101979.91;5020554;28;1582;-51
2021/09/07 02:10:11;;;;;;;;;;;;;;;22.07;43.43;101976.75;5015230;28;1577;-52
2021/09/07 02:15:25;;;;;;;;;;;;;;;22.08;43.30;101978.44;5026323;28;2311;-51
2021/09/07 02:17:52;;;;;;;;;;;;;;;22.10;43.62;101978.34;5018965;28;1220;-51
2021/09/07 02:20:21;;;;;;;;;;;;;;;22.12;43.49;101984.44;5018271;28;1597;-51
2021/09/07 02:22:51;;;;;;;;;;;;;;;22.08;43.07;101986.53;5030066;28;1949;-51
2021/09/07 02:25:19;;;;;;;;;;;;;;;22.08;43.29;101983.00;5013277;28;1627;-50
2021/09/07 02:27:59;;;;;;;;;;;;;;;22.04;44.07;101974.31;5025937;28;1864;-51
2021/09/07 02:30:30;;;;;;;;;;;;;;;22.04;43.75;101988.66;5026055;28;1678;-51
2021/09/07 02:32:58;;;;;;;;;;;;;;;22.02;43.10;101984.34;5025393;28;1803;-52
2021/09/07 02:35:28;;;;;;;;;;;;;;;22.06;43.50;101985.81;5021238;28;1553;-51
2021/09/07 02:37:55;;;;;;;;;;;;;;;22.02;43.73;102013.97;5028837;28;1785;-51
2021/09/07 02:40:25;;;;;;;;;;;;;;;21.93;43.02;101990.50;5031961;28;1623;-51
2021/09/07 02:42:54;;;;;;;;;;;;;;;21.94;43.11;102008.34;5030726;28;1910;-51
2021/09/07 02:45:41;;;;;;;;;;;;;;;22.00;43.02;101986.31;5024403;28;1949;-51
2021/09/07 02:48:11;;;;;;;;;;;;;;;21.96;42.82;101980.31;5027944;28;1450;-51
2021/09/07 02:50:38;;;;;;;;;;;;;;;21.99;43.13;102015.09;5030416;28;1695;-51
2021/09/07 02:53:07;;;;;;;;;;;;;;;21.96;42.61;101995.63;5029356;28;1691;-51
2021/09/07 02:55:34;;;;;;;;;;;;;;;21.94;42.68;101986.81;5031358;28;1546;-51
2021/09/07 02:58:04;;;;;;;;;;;;;;;21.94;43.60;102024.53;5026937;28;1437;-51
2021/09/07 03:00:31;;;;;;;;;;;;;;;21.97;42.82;101994.66;5033645;28;1524;-51
2021/09/07 03:02:58;;;;;;;;;;;;;;;21.94;42.76;102019.13;5030975;28;1910;-51
2021/09/07 03:05:29;;;;;;;;;;;;;;;21.96;43.50;102018.00;5033587;28;1710;-51
2021/09/07 03:07:56;;;;;;;;;;;;;;;21.93;42.56;102001.28;5031999;28;1391;-51
2021/09/07 03:10:23;;;;;;;;;;;;;;;21.93;42.43;101999.44;5033875;28;1773;-51
2021/09/07 03:12:50;;;;;;;;;;;;;;;21.93;42.67;102020.97;5032890;28;1410;-51
2021/09/07 03:15:18;;;;;;;;;;;;;;;21.93;43.69;102022.81;5032426;28;1667;-51
2021/09/07 03:17:46;;;;;;;;;;;;;;;21.95;43.72;102016.31;5032354;28;1362;-51
2021/09/07 03:20:13;;;;;;;;;;;;;;;21.95;42.28;102015.47;5028396;28;1639;-51
2021/09/07 03:22:40;;;;;;;;;;;;;;;21.84;42.74;102019.91;5027891;28;1231;-51
2021/09/07 03:25:11;;;;;;;;;;;;;;;21.74;42.95;102023.44;5032654;28;1969;-52
2021/09/07 03:27:38;;;;;;;;;;;;;;;21.79;43.20;101999.69;5034425;28;1828;-51
2021/09/07 03:32:53;;;;;;;;;;;;;;;21.72;42.62;102018.16;5031565;28;2285;-51
2021/09/07 03:35:20;;;;;;;;;;;;;;;21.75;43.10;102039.47;5025926;28;1583;-51
2021/09/07 03:37:48;;;;;;;;;;;;;;;21.69;42.35;101986.13;5027494;28;1651;-51
2021/09/07 03:40:18;;;;;;;;;;;;;;;21.68;42.30;102019.38;5032161;28;1765;-52
2021/09/07 03:42:46;;;;;;;;;;;;;;;21.73;43.21;102010.97;5032984;28;1811;-51
2021/09/07 03:45:14;;;;;;;;;;;;;;;21.69;42.25;102029.19;5032106;28;1969;-51
2021/09/07 03:47:46;;;;;;;;;;;;;;;21.71;43.02;102039.84;5033313;28;1672;-51
2021/09/07 03:50:17;;;;;;;;;;;;;;;21.68;42.24;102016.69;5030525;28;1553;-51
2021/09/07 03:52:51;;;;;;;;;;;;;;;21.64;42.92;102050.22;5022894;28;1677;-51
2021/09/07 03:55:18;;;;;;;;;;;;;;;21.68;42.11;102030.16;5034687;28;1640;-52
2021/09/07 03:57:46;;;;;;;;;;;;;;;21.69;42.51;102041.81;5031870;28;1616;-51
2021/09/07 04:00:13;;;;;;;;;;;;;;;21.69;42.75;102031.88;5034236;28;1676;-51
2021/09/07 04:02:39;;;;;;;;;;;;;;;21.63;43.06;102035.91;5030444;28;1745;-51
2021/09/07 04:05:07;;;;;;;;;;;;;;;21.71;43.24;102040.69;5031743;28;1882;-51
2021/09/07 04:07:35;;;;;;;;;;;;;;;21.73;42.47;102040.59;5029858;28;1699;-51
2021/09/07 04:10:04;;;;;;;;;;;;;;;21.67;43.26;102038.38;5027081;28;3317;-51
2021/09/07 04:12:33;;;;;;;;;;;;;;;21.52;43.19;102016.22;5024782;28;2919;-53
2021/09/07 04:15:00;;;;;;;;;;;;;;;21.54;42.22;102044.72;5025278;28;1437;-51
2021/09/07 04:17:28;;;;;;;;;;;;;;;21.43;42.92;102026.75;5029054;28;1677;-51
2021/09/07 04:19:55;;;;;;;;;;;;;;;21.57;41.88;102051.72;5029630;28;2043;-52
2021/09/07 04:22:21;;;;;;;;;;;;;;;21.95;44.18;102055.88;5031780;28;1564;-50
2021/09/07 04:24:52;;;;;;;;;;;;;;;22.20;44.14;102066.38;5033726;28;1988;-51
2021/09/07 04:27:21;;;;;;;;;;;;;;;22.39;43.66;102035.25;5027031;28;1617;-51
2021/09/07 04:29:51;;;;;;;;;;;;;;;22.47;43.75;102037.31;5017910;28;1541;-51
2021/09/07 04:32:18;;;;;;;;;;;;;;;22.45;43.84;102034.72;5028603;28;1648;-51
2021/09/07 04:34:48;;;;;;;;;;;;;;;22.48;44.06;102047.09;5029598;28;1718;-51
2021/09/07 04:37:15;;;;;;;;;;;;;;;22.55;45.05;102035.66;5030934;28;1585;-49
2021/09/07 04:39:47;;;;;;;;;;;;;;;22.54;44.59;102033.97;5032738;28;1679;-49
2021/09/07 04:42:20;;;;;;;;;;;;;;;22.59;45.53;102050.59;5031975;28;1625;-51
2021/09/07 04:45:00;;;;;;;;;;;;;;;22.58;45.13;102048.91;5027038;28;1983;-51
2021/09/07 04:47:27;;;;;;;;;;;;;;;22.64;45.78;102061.88;5032447;28;1772;-49
2021/09/07 04:49:53;;;;;;;;;;;;;;;22.70;45.67;102065.03;5031728;28;1644;-51
2021/09/07 04:52:21;;;;;;;;;;;;;;;22.63;45.50;102049.38;5032427;28;1738;-51
2021/09/07 04:54:56;;;;;;;;;;;;;;;22.73;45.78;102054.00;5033603;28;1576;-51
2021/09/07 04:57:28;;;;;;;;;;;;;;;23.26;44.96;102050.41;5029620;28;1727;-51
2021/09/07 04:59:58;;;;;;;;;;;;;;;23.74;44.38;102036.34;5028425;28;1687;-51
2021/09/07 05:02:25;;;;;;;;;;;;;;;24.03;43.92;102047.25;5027021;28;1563;-51
2021/09/07 05:04:52;;;;;;;;;;;;;;;24.30;43.36;102052.03;5029796;28;1992;-51
2021/09/07 05:07:27;;;;;;;;;;;;;;;24.02;41.95;102048.25;5032224;28;1602;-51
2021/09/07 05:09:55;;;;;;;;;;;;;;;23.14;44.05;102068.53;5033317;28;1538;-51
2021/09/07 05:12:26;;;;;;;;;;;;;;;22.82;44.27;102064.03;5029066;28;1624;-51
2021/09/07 05:14:55;;;;;;;;;;;;;;;22.86;45.29;102059.19;5026786;28;1461;-51
2021/09/07 05:17:25;;;;;;;;;;;;;;;22.94;45.92;102076.47;5032848;28;1503;-51
2021/09/07 05:22:33;;;;;;;;;;;;;;;23.07;46.22;102078.16;5025695;28;2433;-52
2021/09/07 05:25:01;;;;;;;;;;;;;;;23.13;46.81;102089.25;5026996;28;1972;-51
2021/09/07 05:27:32;;;;;;;;;;;;;;;23.17;46.58;102079.06;5032207;28;1964;-51
2021/09/07 05:30:00;;;;;;;;;;;;;;;23.17;45.23;102085.31;5026321;28;1714;-51
2021/09/07 05:32:28;;;;;;;;;;;;;;;23.22;46.29;102082.25;5027982;28;1572;-51
2021/09/07 05:35:03;;;;;;;;;;;;;;;23.25;46.16;102087.34;5027127;28;1568;-52
2021/09/07 05:37:29;;;;;;;;;;;;;;;23.48;46.66;102084.53;5022092;28;1717;-53
2021/09/07 05:39:57;;;;;;;;;;;;;;;23.52;46.09;102091.38;5031471;28;1501;-51
2021/09/07 05:42:27;;;;;;;;;;;;;;;23.59;45.89;102092.53;5029232;28;1628;-52
2021/09/07 05:44:54;;;;;;;;;;;;;;;23.68;46.10;102094.44;5031245;28;1906;-52
2021/09/07 05:47:25;;;;;;;;;;;;;;;23.55;44.34;102093.78;5028604;28;1509;-52
2021/09/07 05:49:54;;;;;;;;;;;;;;;23.48;44.46;102092.63;5030472;28;1595;-52
2021/09/07 05:52:21;;;;;;;;;;;;;;;23.40;44.89;102091.44;5031080;28;1520;-52
2021/09/07 05:54:49;;;;;;;;;;;;;;;23.37;44.23;102105.19;5029298;28;1361;-52
2021/09/07 05:57:19;;;;;;;;;;;;;;;23.42;44.96;102097.56;5023329;28;1731;-52
2021/09/07 06:02:31;;;;;;;;;;;;;;;23.53;44.33;102084.97;5022543;28;2688;-52
2021/09/07 06:04:57;;;;;;;;;;;;;;;23.49;43.78;102089.78;5022900;28;1996;-52
2021/09/07 06:07:27;;;;;;;;;;;;;;;23.54;44.14;102097.50;5029403;28;1725;-52
2021/09/07 06:09:55;;;;;;;;;;;;;;;23.59;44.08;102100.63;5031925;28;1466;-52
2021/09/07 06:12:22;;;;;;;;;;;;;;;23.66;43.97;102096.44;5027640;28;1576;-52
2021/09/07 06:14:49;;;;;;;;;;;;;;;23.72;44.03;102106.69;5027438;28;1594;-52
2021/09/07 06:17:16;;;;;;;;;;;;;;;23.77;43.82;102114.38;5029630;28;1569;-52
2021/09/07 06:19:46;;;;;;;;;;;;;;;23.79;43.99;102107.88;5027684;28;1749;-52
2021/09/07 06:22:15;;;;;;;;;;;;;;;23.85;44.62;102102.94;5018948;28;1741;-52
2021/09/07 06:24:42;;;;;;;;;;;;;;;23.92;44.71;102090.59;5026691;28;1981;-52
2021/09/07 06:27:09;;;;;;;;;;;;;;;23.99;44.24;102091.75;5022940;28;1598;-52
2021/09/07 06:29:37;;;;;;;;;;;;;;;23.97;44.43;102078.41;5019593;28;1616;-52
2021/09/07 06:32:22;;;;;;;;;;;;;;;23.98;44.10;102095.47;5028537;28;1680;-52
2021/09/07 06:34:53;;;;;;;;;;;;;;;23.97;44.88;102093.75;5019908;28;1646;-52
2021/09/07 06:37:21;;;;;;;;;;;;;;;23.98;44.86;102084.66;5028400;28;1511;-53
2021/09/07 06:39:50;;;;;;;;;;;;;;;24.07;45.02;102093.78;5029850;28;1339;-52
2021/09/07 06:42:17;;;;;;;;;;;;;;;24.10;44.91;102093.53;5023649;28;1766;-52
2021/09/07 06:44:44;;;;;;;;;;;;;;;24.15;44.52;102086.72;5029595;28;1906;-51
2021/09/07 06:47:12;;;;;;;;;;;;;;;24.14;44.69;102078.75;5021630;28;1662;-52
2021/09/07 06:49:41;;;;;;;;;;;;;;;24.20;44.82;102094.41;5025152;28;1536;-52
2021/09/07 06:52:30;;;;;;;;;;;;;;;24.25;44.08;102099.38;5028976;28;1702;-52
2021/09/07 06:54:57;;;;;;;;;;;;;;;24.29;44.14;102090.00;5028080;28;1506;-51
2021/09/07 06:57:26;;;;;;;;;;;;;;;24.26;44.45;102087.59;5030378;28;1695;-52
2021/09/07 06:59:56;;;;;;;;;;;;;;;24.33;43.67;102099.53;5030243;28;1566;-50
2021/09/07 07:02:25;;;;;;;;;;;;;;;24.34;43.99;102095.88;5019838;28;1666;-51
2021/09/07 07:04:55;;;;;;;;;;;;;;;24.39;44.00;102098.97;5021008;28;1902;-49
2021/09/07 07:07:24;;;;;;;;;;;;;;;24.41;44.00;102102.41;5025596;28;1588;-49
2021/09/07 07:09:54;;;;;;;;;;;;;;;24.35;44.38;102097.56;5030638;28;1626;-49
2021/09/07 07:12:24;;;;;;;;;;;;;;;24.36;44.57;102094.72;5027210;28;1698;-49
2021/09/07 07:14:51;;;;;;;;;;;;;;;24.45;44.63;102102.97;5026923;28;1740;-50
2021/09/07 07:17:19;;;;;;;;;;;;;;;24.44;44.07;102101.28;5032508;28;1625;-49
2021/09/07 07:19:50;;;;;;;;;;;;;;;24.46;44.51;102105.56;5030018;28;1668;-50
2021/09/07 07:22:18;;;;;;;;;;;;;;;24.48;44.11;102103.56;5030937;28;1643;-49
2021/09/07 07:24:50;;;;;;;;;;;;;;;24.42;44.77;102110.38;5026410;28;2445;-50
2021/09/07 07:27:17;;;;;;;;;;;;;;;24.41;43.47;102105.09;5028251;28;1709;-49
2021/09/07 07:29:45;;;;;;;;;;;;;;;24.42;44.20;102109.53;5024216;28;1716;-50
2021/09/07 07:32:19;;;;;;;;;;;;;;;24.33;44.28;102099.53;5032512;28;1765;-49
2021/09/07 07:34:46;;;;;;;;;;;;;;;24.24;43.41;102087.72;5032701;28;1736;-50
2021/09/07 07:37:14;;;;;;;;;;;;;;;24.16;42.55;102087.56;5032973;28;1673;-50
2021/09/07 07:39:44;;;;;;;;;;;;;;;24.17;43.49;102097.38;5035655;28;1318;-49
2021/09/07 07:42:17;;;;;;;;;;;;;;;24.22;43.47;102098.66;5031972;28;1592;-49
2021/09/07 07:44:47;;;;;;;;;;;;;;;24.10;41.29;102094.38;5033887;28;1910;-49
2021/09/07 07:47:16;;;;;;;;;;;;;;;24.09;41.71;102108.84;5025829;28;1570;-49
2021/09/07 07:49:46;;;;;;;;;;;;;;;24.07;40.66;102099.19;5030042;28;1581;-49
2021/09/07 07:52:13;;;;;;;;;;;;;;;24.14;42.19;102092.25;5025675;28;1742;-49
2021/09/07 07:54:39;;;;;;;;;;;;;;;24.21;43.12;102086.16;5033463;28;1720;-49
2021/09/07 07:57:08;;;;;;;;;;;;;;;24.22;43.24;102097.81;5028466;28;1763;-49
2021/09/07 07:59:38;;;;;;;;;;;;;;;24.17;40.30;102083.84;5028558;28;1774;-49
2021/09/07 08:02:08;;;;;;;;;;;;;;;24.24;42.83;102090.44;5031448;28;1493;-50
2021/09/07 08:04:39;;;;;;;;;;;;;;;24.19;42.29;102098.06;5033553;28;1906;-49
2021/09/07 08:07:08;;;;;;;;;;;;;;;24.16;41.53;102087.56;5032092;28;1628;-50
2021/09/07 08:09:37;;;;;;;;;;;;;;;24.17;42.07;102095.53;5022877;28;1610;-49
2021/09/07 08:12:03;;;;;;;;;;;;;;;24.07;39.51;102083.81;5026516;28;1827;-49
2021/09/07 08:14:33;;;;;;;;;;;;;;;24.07;39.16;102088.38;5032000;28;1890;-50
2021/09/07 08:17:09;;;;;;;;;;;;;;;24.07;38.98;102088.38;5034245;28;1577;-49
2021/09/07 08:19:35;;;;;;;;;;;;;;;24.14;40.29;102095.81;5029717;28;1773;-50
2021/09/07 08:22:09;;;;;;;;;;;;;;;24.15;41.13;102086.72;5028245;28;1633;-50
2021/09/07 08:24:36;;;;;;;;;;;;;;;24.19;40.99;102081.88;5032496;28;1985;-50
2021/09/07 08:27:07;;;;;;;;;;;;;;;24.19;40.66;102084.56;5029956;28;1777;-50
2021/09/07 08:29:42;;;;;;;;;;;;;;;24.25;40.76;102083.16;5020871;28;1550;-50
2021/09/07 08:32:13;;;;;;;;;;;;;;;24.25;40.69;102070.50;5024982;28;1644;-49
2021/09/07 08:34:44;;;;;;;;;;;;;;;24.28;40.96;102074.78;5027912;28;1716;-49
2021/09/07 08:37:13;;;;;;;;;;;;;;;24.30;41.26;102083.63;5021339;28;1550;-49
2021/09/07 08:39:41;;;;;;;;;;;;;;;24.29;41.25;102065.66;5023980;28;1491;-48
2021/09/07 08:42:11;;;;;;;;;;;;;;;24.29;41.60;102073.78;5027613;28;1683;-48
2021/09/07 08:44:44;;;;;;;;;;;;;;;24.29;41.57;102071.97;5029695;28;2035;-49
2021/09/07 08:47:19;;;;;;;;;;;;;;;24.27;40.55;102056.84;5028669;28;1604;-50
2021/09/07 08:49:49;;;;;;;;;;;;;;;24.21;40.66;102048.31;5021054;28;1573;-49
2021/09/07 08:52:18;;;;;;;;;;;;;;;24.16;41.39;102055.13;5026065;28;1665;-49
2021/09/07 08:54:52;;;;;;;;;;;;;;;24.17;41.19;102060.41;5028656;28;1656;-49
2021/09/07 08:57:21;;;;;;;;;;;;;;;24.11;39.83;102060.94;5029703;28;1670;-49
2021/09/07 08:59:55;;;;;;;;;;;;;;;24.12;40.79;102062.66;5030844;28;1583;-49
2021/09/07 09:02:27;;;;;;;;;;;;;;;24.09;40.97;102049.41;5029270;28;1859;-49
2021/09/07 09:04:54;;;;;;;;;;;;;;;24.09;41.03;102038.59;5026370;28;1906;-49
2021/09/07 09:07:21;;;;;;;;;;;;;;;24.17;40.27;102052.28;5031899;28;1547;-49
2021/09/07 09:09:50;;;;;;;;;;;;;;;24.11;40.79;102047.41;5026103;28;1750;-49
2021/09/07 09:12:27;;;;;;;;;;;;;;;24.01;39.19;102039.31;5028869;28;1912;-49
2021/09/07 09:14:56;;;;;;;;;;;;;;;24.07;39.35;102045.97;5022833;28;1943;-50
2021/09/07 09:17:29;;;;;;;;;;;;;;;23.99;39.78;102035.00;5023977;28;1574;-49
2021/09/07 09:19:58;;;;;;;;;;;;;;;24.05;39.88;102036.31;5018977;28;1412;-48
2021/09/07 09:22:40;;;;;;;;;;;;;;;24.02;39.26;102032.91;5025679;28;1555;-48
2021/09/07 09:25:25;;;;;;;;;;;;;;;23.97;39.53;102020.78;5020983;28;1991;-48
2021/09/07 09:28:08;;;;;;;;;;;;;;;23.99;39.87;102024.22;5028541;28;1684;-49
2021/09/07 09:30:37;;;;;;;;;;;;;;;23.99;40.26;102027.78;5027858;28;2034;-48
2021/09/07 09:33:10;;;;;;;;;;;;;;;24.02;40.04;102005.03;5025011;28;2115;-49
2021/09/07 09:35:51;;;;;;;;;;;;;;;24.06;39.55;102009.16;5026611;28;1561;-49
2021/09/07 09:38:19;;;;;;;;;;;;;;;24.07;40.36;102024.38;5022140;28;1712;-48
2021/09/07 09:40:59;;;;;;;;;;;;;;;24.01;39.39;102004.19;5030423;28;1780;-49
2021/09/07 09:43:43;;;;;;;;;;;;;;;23.99;40.46;102024.22;5032064;28;1406;-48
2021/09/07 09:46:41;;;;;;;;;;;;;;;24.04;40.69;102013.84;5030086;28;1906;-49
2021/09/07 09:49:33;;;;;;;;;;;;;;;24.05;38.69;102004.72;5021231;28;1580;-50
2021/09/07 09:52:02;;;;;;;;;;;;;;;24.02;38.24;102018.53;5011798;28;1706;-49
2021/09/07 09:54:35;;;;;;;;;;;;;;;23.97;37.44;102007.28;5021562;28;1580;-49
2021/09/07 09:57:04;;;;;;;;;;;;;;;23.96;37.35;102003.72;5030236;28;2017;-50
2021/09/07 09:59:33;;;;;;;;;;;;;;;23.94;37.73;101996.75;5031264;28;1636;-50
2021/09/07 10:02:04;;;;;;;;;;;;;;;23.98;38.40;102019.81;5024712;28;1489;-49
2021/09/07 10:04:36;;;;;;;;;;;;;;;24.05;39.72;101983.13;5025868;28;1759;-50
2021/09/07 10:07:10;;;;;;;;;;;;;;;24.11;39.40;102014.13;5024806;28;1909;-48
2021/09/07 10:09:40;;;;;;;;;;;;;;;24.09;39.45;101998.06;5024852;28;1616;-50
2021/09/07 10:12:11;;;;;;;;;;;;;;;24.06;39.14;101998.34;5023566;28;1750;-50
2021/09/07 10:15:05;;;;;;;;;;;;;;;24.12;39.79;101986.13;5028127;28;1607;-50
2021/09/07 10:17:39;;;;;;;;;;;;;;;24.18;39.97;101983.72;5026800;28;1591;-50
2021/09/07 10:20:26;;;;;;;;;;;;;;;24.27;40.50;101978.47;5028757;28;1668;-50
2021/09/07 10:26:06;;;;;;;;;;;;;;;24.28;40.76;101978.31;5019848;28;1910;-50
2021/09/07 10:28:37;;;;;;;;;;;;;;;24.24;39.25;101990.41;5031076;28;1449;-50
2021/09/07 10:31:13;;;;;;;;;;;;;;;24.19;39.82;101998.94;5029451;28;1619;-50
2021/09/07 10:34:03;;;;;;;;;;;;;;;24.19;39.42;101982.75;5027101;28;1844;-50
2021/09/07 10:36:45;;;;;;;;;;;;;;;24.19;38.84;101977.34;5025697;28;1387;-50
2021/09/07 10:39:26;;;;;;;;;;;;;;;24.13;39.74;101977.00;5032320;28;1371;-50
2021/09/07 10:44:35;;;;;;;;;;;;;;;24.12;40.01;101970.75;5028896;28;2459;-50
2021/09/07 10:47:12;;;;;;;;;;;;;;;24.18;39.73;101972.91;5023992;28;1910;-50
2021/09/07 10:49:50;;;;;;;;;;;;;;;24.18;38.38;101972.06;5028831;28;1676;-51
2021/09/07 10:52:33;;;;;;;;;;;;;;;24.13;38.39;101975.19;5027489;28;2020;-50
2021/09/07 10:55:19;;;;;;;;;;;;;;;24.11;38.23;101969.03;5026462;28;1706;-50
2021/09/07 10:58:06;;;;;;;;;;;;;;;24.09;38.09;101956.69;5023783;28;1504;-50
2021/09/07 11:00:43;;;;;;;;;;;;;;;24.06;38.30;101968.63;5028242;28;1482;-50
2021/09/07 11:03:14;;;;;;;;;;;;;;;24.00;38.45;101961.94;5028247;28;1641;-50
2021/09/07 11:05:46;;;;;;;;;;;;;;;23.98;38.01;101954.97;5028509;28;1974;-50
2021/09/07 11:08:13;;;;;;;;;;;;;;;23.98;38.82;101952.25;5027574;28;1646;-50
2021/09/07 11:10:49;;;;;;;;;;;;;;;24.08;39.30;101955.81;5036315;28;1470;-50
2021/09/07 11:13:33;;;;;;;;;;;;;;;24.06;38.01;101954.28;5028317;28;1815;-50
2021/09/07 11:16:01;;;;;;;;;;;;;;;24.06;37.54;101952.41;5035098;28;1770;-49
2021/09/07 11:18:30;;;;;;;;;;;;;;;24.08;37.71;101952.28;5033334;28;1839;-50
2021/09/07 11:21:02;;;;;;;;;;;;;;;24.04;37.75;101946.28;5031276;28;1920;-50
2021/09/07 11:23:30;;;;;;;;;;;;;;;24.03;37.21;101941.88;5031421;28;1765;-50
2021/09/07 11:26:00;;;;;;;;;;;;;;;24.02;37.63;101929.38;5035474;28;1910;-50
2021/09/07 11:28:30;;;;;;;;;;;;;;;24.07;38.42;101937.03;5035310;28;1597;-50
2021/09/07 11:31:03;;;;;;;;;;;;;;;24.09;38.50;101929.66;5028528;28;1967;-51
2021/09/07 11:33:33;;;;;;;;;;;;;;;24.06;38.21;101927.25;5029135;28;1817;-50
2021/09/07 11:36:15;;;;;;;;;;;;;;;24.05;38.02;101918.25;5031619;28;1618;-50
2021/09/07 11:38:46;;;;;;;;;;;;;;;24.03;37.92;101941.88;5031409;28;2055;-50
2021/09/07 11:41:16;;;;;;;;;;;;;;;23.98;36.50;101922.53;5030845;28;1527;-50
2021/09/07 11:43:43;;;;;;;;;;;;;;;24.01;38.04;101916.84;5026388;28;1727;-49
2021/09/07 11:46:11;;;;;;;;;;;;;;;24.06;37.95;101919.13;5032679;28;1979;-50
2021/09/07 11:48:41;;;;;;;;;;;;;;;23.99;37.86;101908.03;5027057;28;1769;-50
2021/09/07 11:51:22;;;;;;;;;;;;;;;23.98;38.57;101906.34;5025625;28;2050;-50
2021/09/07 11:54:01;;;;;;;;;;;;;;;24.02;37.25;101916.72;5029420;28;1728;-50
2021/09/07 11:56:30;;;;;;;;;;;;;;;24.02;37.06;101903.19;5029213;28;1775;-50
2021/09/07 11:59:10;;;;;;;;;;;;;;;24.13;37.66;101910.34;5018227;28;1571;-50
2021/09/07 12:01:39;;;;;;;;;;;;;;;24.21;38.86;101915.88;5029699;28;1728;-50
2021/09/07 12:04:06;;;;;;;;;;;;;;;24.13;37.53;101915.75;5030731;28;1553;-50
2021/09/07 12:06:37;;;;;;;;;;;;;;;23.99;36.88;101905.31;5027480;28;1910;-51
2021/09/07 12:09:14;;;;;;;;;;;;;;;23.98;37.29;101895.53;5034469;28;1586;-50
2021/09/07 12:11:45;;;;;;;;;;;;;;;23.99;37.64;101895.38;5029790;28;1606;-50
2021/09/07 12:14:32;;;;;;;;;;;;;;;23.94;38.68;101883.28;5033830;28;1882;-50
2021/09/07 12:17:00;;;;;;;;;;;;;;;24.01;38.61;101873.59;5023365;28;1642;-50
2021/09/07 12:19:32;;;;;;;;;;;;;;;24.07;38.97;101883.00;5033766;28;1773;-51
2021/09/07 12:22:28;;;;;;;;;;;;;;;24.06;39.07;101882.16;5030842;28;1586;-51
2021/09/07 12:25:17;;;;;;;;;;;;;;;24.16;38.11;101893.81;5025788;28;1647;-50
2021/09/07 12:27:48;;;;;;;;;;;;;;;24.20;38.66;101873.63;5030009;28;1979;-50
2021/09/07 12:30:21;;;;;;;;;;;;;;;24.25;38.99;101875.03;5034399;28;1780;-50
2021/09/07 12:32:56;;;;;;;;;;;;;;;24.34;39.18;101874.19;5031651;28;1609;-50
2021/09/07 12:35:34;;;;;;;;;;;;;;;24.35;40.10;101862.34;5029854;28;1659;-49
2021/09/07 12:38:04;;;;;;;;;;;;;;;24.34;39.84;101858.81;5032750;28;1645;-50
2021/09/07 12:40:31;;;;;;;;;;;;;;;24.40;41.06;101869.03;5035261;28;1918;-50
2021/09/07 12:43:13;;;;;;;;;;;;;;;24.36;40.32;101856.81;5032058;28;1690;-50
2021/09/07 12:45:46;;;;;;;;;;;;;;;24.41;40.98;101856.38;5032103;28;1693;-50
2021/09/07 12:48:14;;;;;;;;;;;;;;;24.40;41.06;101855.53;5031453;28;1667;-50
2021/09/07 12:50:42;;;;;;;;;;;;;;;24.39;40.72;101855.66;5023375;28;1545;-50
2021/09/07 12:53:20;;;;;;;;;;;;;;;24.28;41.49;101837.75;5031873;28;1747;-50
2021/09/07 12:55:56;;;;;;;;;;;;;;;24.24;40.22;101836.34;5033839;28;1410;-50
2021/09/07 12:58:23;;;;;;;;;;;;;;;24.21;40.22;101837.50;5033116;28;1539;-50
2021/09/07 13:00:53;;;;;;;;;;;;;;;24.16;40.05;101834.34;5029914;28;2038;-50
2021/09/07 13:03:25;;;;;;;;;;;;;;;24.12;38.33;101837.50;5031550;28;1792;-50
2021/09/07 13:05:54;;;;;;;;;;;;;;;24.08;38.39;101842.34;5023782;28;1906;-50
2021/09/07 13:08:21;;;;;;;;;;;;;;;24.07;40.15;101837.91;5033688;28;2075;-50
2021/09/07 13:10:48;;;;;;;;;;;;;;;24.04;39.82;101832.81;5033601;28;1891;-51
2021/09/07 13:13:16;;;;;;;;;;;;;;;24.08;38.37;101834.22;5032609;28;1463;-50
2021/09/07 13:15:46;;;;;;;;;;;;;;;24.13;38.19;101839.19;5033018;28;1916;-50
2021/09/07 13:18:19;;;;;;;;;;;;;;;24.19;38.65;101844.91;5032083;28;1635;-50
2021/09/07 13:20:48;;;;;;;;;;;;;;;24.22;39.06;101833.78;5034378;28;1820;-51
2021/09/07 13:23:16;;;;;;;;;;;;;;;24.25;37.73;101824.53;5020980;28;1755;-50
2021/09/07 13:25:46;;;;;;;;;;;;;;;24.30;39.47;101810.59;5033987;28;1605;-50
2021/09/07 13:28:17;;;;;;;;;;;;;;;24.35;39.89;101802.88;5028159;28;1902;-50
2021/09/07 13:30:43;;;;;;;;;;;;;;;24.42;40.21;101807.56;5026335;28;2060;-50
2021/09/07 13:33:14;;;;;;;;;;;;;;;24.43;40.67;101803.00;5029040;28;2050;-51